createdAt,value
2023-07-16T00:03:25.626Z,560
2023-07-16T00:08:26.954Z,547.92157
2023-07-16T00:13:28.321Z,553.90099
2023-07-16T00:18:29.613Z,542.05825
2023-07-16T00:23:30.935Z,519.70093
2023-07-16T00:28:32.392Z,525.13208
2023-07-16T00:33:33.756Z,509.13761
2023-07-16T00:38:35.380Z,498.95495
2023-07-16T00:43:36.752Z,504
2023-07-16T00:48:38.410Z,494
2023-07-16T00:53:39.710Z,494
2023-07-16T00:58:41.095Z,489.13274
2023-07-16T01:03:42.599Z,494
2023-07-16T01:08:44.018Z,484.35088
2023-07-16T01:13:45.380Z,484.35088
2023-07-16T01:18:46.734Z,479.65217
2023-07-16T01:23:48.029Z,489.13274
2023-07-16T01:28:49.683Z,484.35088
2023-07-16T01:33:51.026Z,498.95495
2023-07-16T01:38:52.380Z,494
2023-07-16T01:43:53.668Z,489.13274
2023-07-16T01:48:55.291Z,489.13274
2023-07-16T01:53:56.643Z,489.13274
2023-07-16T01:58:58.153Z,489.13274
2023-07-16T02:03:59.471Z,489.13274
2023-07-16T02:09:01.058Z,494
2023-07-16T02:14:02.389Z,494
2023-07-16T02:19:04.019Z,494
2023-07-16T02:24:05.433Z,494
2023-07-16T02:29:06.763Z,494
2023-07-16T02:34:08.167Z,504
2023-07-16T02:39:09.521Z,504
2023-07-16T02:44:10.905Z,498.95495
2023-07-16T02:49:12.521Z,498.95495
2023-07-16T02:54:13.812Z,504
2023-07-16T02:59:15.132Z,498.95495
2023-07-16T03:04:16.615Z,498.95495
2023-07-16T03:09:17.963Z,504
2023-07-16T03:14:19.339Z,484.35088
2023-07-16T03:19:20.645Z,479.65217
2023-07-16T03:24:21.998Z,470.49573
2023-07-16T03:29:23.295Z,453.09091
2023-07-16T03:34:24.940Z,432.88889
2023-07-16T03:39:26.448Z,410.66667
2023-07-16T03:44:27.954Z,403.70149
2023-07-16T03:49:29.441Z,403.70149
2023-07-16T03:54:30.722Z,403.70149
2023-07-16T03:59:32.168Z,403.70149
2023-07-16T04:04:33.600Z,417.84615
2023-07-16T04:09:35.030Z,417.84615
2023-07-16T04:14:36.304Z,421.51938
2023-07-16T04:19:37.664Z,425.25
2023-07-16T04:24:38.974Z,425.25
2023-07-16T04:29:40.330Z,425.25
2023-07-16T04:34:41.820Z,429.03937
2023-07-16T04:39:43.245Z,425.25
2023-07-16T04:44:44.532Z,425.25
2023-07-16T04:49:46.322Z,429.03937
2023-07-16T04:54:48.182Z,432.88889
2023-07-16T04:59:49.560Z,429.03937
2023-07-16T05:04:51.013Z,429.03937
2023-07-16T05:09:52.351Z,429.03937
2023-07-16T05:14:53.669Z,414.22901
2023-07-16T05:19:55.493Z,403.70149
2023-07-16T05:24:56.823Z,421.51938
2023-07-16T05:29:58.130Z,425.25
2023-07-16T05:35:03.115Z,425.25
2023-07-16T05:40:05.085Z,432.88889
2023-07-16T05:45:06.412Z,448.91803
2023-07-16T05:50:07.907Z,440.77419
2023-07-16T05:55:09.245Z,436.8
2023-07-16T06:00:10.645Z,448.91803
2023-07-16T06:05:12.258Z,444.81301
2023-07-16T06:10:13.906Z,466.0339
2023-07-16T06:15:15.444Z,457.33333
2023-07-16T06:20:16.755Z,466.0339
2023-07-16T06:25:18.273Z,457.33333
2023-07-16T06:30:19.831Z,504
2023-07-16T06:35:21.491Z,536.30769
2023-07-16T06:40:23.046Z,542.05825
2023-07-16T06:45:24.473Z,677.33333
2023-07-16T06:50:26.083Z,704.49383
2023-07-16T06:55:27.819Z,1024.70175
2023-07-16T07:00:29.508Z,1227.33333
2023-07-16T07:05:31.308Z,1608.86486
2023-07-16T07:10:32.977Z,1704
2023-07-16T07:15:34.660Z,2144
2023-07-16T07:20:36.278Z,2068.13793
2023-07-16T07:25:37.691Z,2225.48148
2023-07-16T07:30:39.073Z,2744
2023-07-16T07:35:40.702Z,3366.22222
2023-07-16T07:40:42.016Z,4050.66667
2023-07-16T07:45:44.097Z,7644
2023-07-16T07:50:45.756Z,12264
2023-07-16T07:55:47.042Z,12264
2023-07-16T08:00:48.752Z,12264
2023-07-16T08:05:50.267Z,12264
2023-07-16T08:10:51.890Z,12264
2023-07-16T08:15:53.665Z,20477.33333
2023-07-16T08:20:55.614Z,12264
2023-07-16T08:25:56.969Z,15344
2023-07-16T08:30:58.802Z,15344
2023-07-16T08:36:00.677Z,15344
2023-07-16T08:41:02.269Z,20477.33333
2023-07-16T08:46:03.949Z,20477.33333
2023-07-16T08:51:05.593Z,30744
2023-07-16T08:56:07.285Z,30744
2023-07-16T09:01:08.951Z,20477.33333
2023-07-16T09:06:10.606Z,20477.33333
2023-07-16T09:11:11.996Z,61544
2023-07-16T09:16:13.671Z,61544
2023-07-16T09:21:15.081Z,61544
2023-07-16T09:26:17.053Z,61544
2023-07-16T09:31:19.206Z,61544
2023-07-16T09:36:21.234Z,61544
2023-07-16T09:41:23.046Z,61544
2023-07-16T09:46:24.704Z,61544
2023-07-16T09:51:26.398Z,61544
2023-07-16T09:56:28.156Z,61544
2023-07-16T10:01:29.870Z,30744
2023-07-16T10:06:31.677Z,61544
2023-07-16T10:11:33.319Z,61544
2023-07-16T10:16:34.863Z,61544
2023-07-16T10:21:36.401Z,61544
2023-07-16T10:26:37.769Z,30744
2023-07-16T10:31:39.181Z,61544
2023-07-16T10:36:40.542Z,30744
2023-07-16T10:41:41.950Z,15344
2023-07-16T10:46:43.387Z,61544
2023-07-16T10:51:44.921Z,61544
2023-07-16T10:56:46.272Z,61544
2023-07-16T11:01:47.603Z,61544
2023-07-16T11:06:49.422Z,61544
2023-07-16T11:11:50.916Z,61544
2023-07-16T11:16:52.224Z,61544
2023-07-16T11:21:53.769Z,61544
2023-07-16T11:26:55.283Z,0
2023-07-16T11:31:57.030Z,61544
2023-07-16T11:36:58.712Z,61544
2023-07-16T11:42:00.329Z,0
2023-07-16T11:47:01.896Z,61544
2023-07-16T11:52:03.450Z,61544
2023-07-16T11:57:05.143Z,61544
2023-07-16T12:02:06.463Z,0
2023-07-16T12:07:08.037Z,61544
2023-07-16T12:12:09.328Z,61544
2023-07-16T12:17:11.207Z,0
2023-07-16T12:22:13.003Z,61544
2023-07-16T12:27:15.043Z,0
2023-07-16T12:32:16.815Z,61544
2023-07-16T12:37:18.464Z,61544
2023-07-16T12:42:20.141Z,61544
2023-07-16T12:47:21.821Z,30744
2023-07-16T12:52:23.549Z,61544
2023-07-16T12:57:25.317Z,61544
2023-07-16T13:02:27.061Z,61544
2023-07-16T13:07:28.753Z,61544
2023-07-16T13:12:30.134Z,0
2023-07-16T13:17:31.513Z,0
2023-07-16T13:22:33.350Z,0
2023-07-16T13:27:36.375Z,61544
2023-07-16T13:32:37.790Z,61544
2023-07-16T13:37:39.713Z,0
2023-07-16T13:42:41.661Z,0
2023-07-16T13:47:43.644Z,0
2023-07-16T13:52:45.053Z,0
2023-07-16T13:57:46.731Z,0
2023-07-16T14:02:48.499Z,0
2023-07-16T14:07:50.021Z,0
2023-07-16T14:12:51.450Z,0
2023-07-16T14:17:52.994Z,0
2023-07-16T14:22:54.429Z,0
2023-07-16T14:27:55.984Z,0
2023-07-16T14:32:57.348Z,0
2023-07-16T14:37:58.948Z,0
2023-07-16T14:43:00.557Z,0
2023-07-16T14:48:01.937Z,0
2023-07-16T14:53:03.605Z,0
2023-07-16T14:58:04.957Z,0
2023-07-16T15:03:06.478Z,0
2023-07-16T15:08:08.293Z,30744
2023-07-16T15:13:09.979Z,61544
2023-07-16T15:18:11.797Z,61544
2023-07-16T15:23:13.700Z,4344
2023-07-16T15:28:15.256Z,12264
2023-07-16T15:33:16.886Z,20477.33333
2023-07-16T15:38:18.487Z,20477.33333
2023-07-16T15:43:20.223Z,15344
2023-07-16T15:48:22.128Z,15344
2023-07-16T15:53:23.927Z,12264
2023-07-16T15:58:25.659Z,8744
2023-07-16T16:03:27.414Z,7644
2023-07-16T16:08:29.242Z,4682.46154
2023-07-16T16:13:31.081Z,4682.46154
2023-07-16T16:23:38.204Z,1755.76471
2023-07-16T16:28:40.055Z,2068.13793
2023-07-16T16:33:41.881Z,2744
2023-07-16T16:38:43.522Z,3024
2023-07-16T16:43:44.844Z,2408
2023-07-16T16:48:46.369Z,1523.48718
2023-07-16T16:53:47.776Z,1106.26415
2023-07-16T16:58:49.149Z,1484
2023-07-16T17:03:50.463Z,2144
2023-07-16T17:08:51.771Z,1344
2023-07-16T17:13:53.188Z,1106.26415
2023-07-16T17:18:54.602Z,3186.10526
2023-07-16T17:23:56.320Z,2313.23077
2023-07-16T17:28:57.797Z,4682.46154
2023-07-16T17:33:59.138Z,1997.33333
2023-07-16T17:39:00.586Z,970.66667
2023-07-16T17:44:01.934Z,891.69231
2023-07-16T17:49:03.346Z,1410.66667
2023-07-16T17:54:04.829Z,2225.48148
2023-07-16T17:59:06.296Z,2877.33333
2023-07-16T18:04:08.076Z,2622.26087
2023-07-16T18:09:09.519Z,2408
2023-07-16T18:14:11.179Z,2877.33333
2023-07-16T18:19:12.818Z,2068.13793
2023-07-16T18:24:14.986Z,1283.13043
2023-07-16T18:29:16.314Z,1254.6383
2023-07-16T18:34:17.966Z,1410.66667
2023-07-16T18:39:19.424Z,1084.74074
2023-07-16T18:44:20.813Z,1410.66667
2023-07-16T18:49:22.238Z,1151.84314
2023-07-16T18:54:23.533Z,1044
2023-07-16T18:59:24.828Z,1084.74074
2023-07-16T19:04:26.237Z,765.33333
2023-07-16T19:09:27.636Z,668.70588
2023-07-16T19:14:29.212Z,644
2023-07-16T19:19:30.787Z,824
2023-07-16T19:24:32.574Z,849.88235
2023-07-16T19:29:34.097Z,799.55556
2023-07-16T19:34:35.827Z,644
2023-07-16T19:39:37.540Z,628.44444
2023-07-16T19:44:39.189Z,733.74359
2023-07-16T19:49:40.821Z,754.52632
2023-07-16T19:54:42.549Z,704.49383
2023-07-16T19:59:44.229Z,695.21951
2023-07-16T20:04:45.638Z,733.74359
2023-07-16T20:09:47.012Z,744
2023-07-16T20:14:48.308Z,744
2023-07-16T20:19:49.596Z,695.21951
2023-07-16T20:24:50.950Z,799.55556
2023-07-16T20:29:52.445Z,811.60563
2023-07-16T20:34:53.794Z,744
2023-07-16T20:39:55.320Z,733.74359
2023-07-16T20:44:56.692Z,714
2023-07-16T20:49:58.039Z,714
2023-07-16T20:55:01.588Z,811.60563
2023-07-16T21:00:03.294Z,811.60563
2023-07-16T21:05:04.700Z,787.83562
2023-07-16T21:10:06.030Z,744
2023-07-16T21:15:07.449Z,704.49383
2023-07-16T21:20:08.826Z,714
2023-07-16T21:25:10.198Z,652.04598
2023-07-16T21:30:11.747Z,599.31915
2023-07-16T21:35:13.380Z,553.90099
2023-07-16T21:40:15.075Z,525.13208
2023-07-16T21:45:16.475Z,509.13761
2023-07-16T21:50:17.880Z,509.13761
2023-07-16T21:55:19.368Z,509.13761
2023-07-16T22:00:20.694Z,509.13761
2023-07-16T22:05:22.179Z,498.95495
2023-07-16T22:10:23.621Z,509.13761
2023-07-16T22:15:24.994Z,514.37037
2023-07-16T22:20:26.372Z,509.13761
2023-07-16T22:25:27.685Z,509.13761
2023-07-16T22:30:29.202Z,514.37037
2023-07-16T22:35:30.543Z,509.13761
2023-07-16T22:40:32.102Z,514.37037
2023-07-16T22:45:33.537Z,525.13208
2023-07-16T22:50:34.891Z,553.90099
2023-07-16T22:55:36.563Z,566.22222
2023-07-16T23:00:37.912Z,566.22222
2023-07-16T23:05:39.287Z,566.22222
2023-07-16T23:10:40.877Z,547.92157
2023-07-16T23:15:42.227Z,536.30769
2023-07-16T23:20:43.792Z,553.90099
2023-07-16T23:25:45.626Z,560
2023-07-16T23:30:47.428Z,530.66667
2023-07-16T23:35:49.058Z,514.37037
2023-07-16T23:40:50.433Z,514.37037
2023-07-16T23:45:51.825Z,514.37037
2023-07-16T23:50:53.225Z,509.13761
2023-07-16T23:55:54.603Z,514.37037
